Thursday, July 30, 2015, 10:05 AM EDT

KUNV, State College, University Park Airport

Location: State College, PA, United States Lat: 40.85
Local Time: 10:05 AM EDT (14:05 GMT) Lon: -77.85
Time Zone: US/Eastern Elev: 1240 ft

Show me the last for .
Show Decoded

2015-07-30 09:53 METAR KUNV 301353Z 00000KT 2SM BR OVC011 22/22 A2993 =
2015-07-30 08:53 METAR KUNV 301253Z 00000KT 1SM +RA OVC008 22/21 A2995 =
2015-07-30 08:05 METAR KUNV 301205Z 00000KT 1SM +RA BKN020 BKN032 OVC043 22/21 A2994 =
2015-07-30 07:53 METAR KUNV 301153Z 00000KT 3SM -RA SCT030 BKN041 OVC075 22/21 A2994 =
2015-07-30 07:30 METAR KUNV 301130Z 24006KT 3SM RA SCT007 BKN023 OVC042 22/21 A2993 =
2015-07-30 07:18 METAR KUNV 301118Z COR 28005KT 1SM -RA BR BKN007 OVC013 22/21 A2993 =
2015-07-30 07:05 METAR KUNV 301105Z COR 28015KT 1/2SM +RA OVC024 23/22 A2994 =
2015-07-30 06:53 METAR KUNV 301053Z 00000KT 5SM BR SCT035 22/21 A2992 =
2015-07-30 05:53 METAR KUNV 300953Z 00000KT 5SM BR SKC 21/20 A2991 RMK LTG DSNT NW =
2015-07-30 05:35 METAR KUNV 300935Z AUTO 25003KT 4SM BR CLR 21/21 A2991 RMK AO2 T02090205 =
2015-07-30 05:15 METAR KUNV 300915Z AUTO 00000KT 7SM CLR 22/21 A2991 RMK AO2 T02200213 =
2015-07-30 04:55 METAR KUNV 300855Z AUTO 00000KT 7SM CLR 22/21 A2991 RMK AO2 LTG DSNT SW
                 T02190214 =
2015-07-30 04:35 METAR KUNV 300835Z AUTO 28003KT 10SM CLR 23/22 A2991 RMK AO2 LTG DSNT SW
                 T02250215 =
2015-07-30 04:15 METAR KUNV 300815Z AUTO 00000KT 10SM CLR 23/21 A2991 RMK AO2 T02250213 =
2015-07-30 03:55 METAR KUNV 300755Z AUTO 25004KT 7SM CLR 22/22 A2992 RMK AO2 T02230215 =
2015-07-30 03:35 METAR KUNV 300735Z AUTO 24003KT 7SM SCT120 22/21 A2992 RMK AO2 T02190209 =
2015-07-30 03:15 METAR KUNV 300715Z AUTO 26005KT 10SM SCT070 SCT120 23/22 A2993 RMK AO2 T02270215
                 =
2015-07-30 02:55 METAR KUNV 300655Z AUTO 24004KT 10SM SCT060 BKN085 24/22 A2993 RMK AO2 T02350217
                 =
2015-07-30 02:35 METAR KUNV 300635Z AUTO 26004KT 10SM BKN060 BKN070 24/22 A2994 RMK AO2 T02380218
                 =
2015-07-30 02:15 METAR KUNV 300615Z AUTO 25003KT 10SM SCT070 23/21 A2994 RMK AO2 T02310214 =
2015-07-30 01:55 METAR KUNV 300555Z AUTO 26003KT 10SM CLR 24/22 A2995 RMK AO2 T02390215 10270
                 20227 =
2015-07-30 01:35 METAR KUNV 300535Z AUTO 25003KT 10SM CLR 24/22 A2995 RMK AO2 T02390215 =
2015-07-30 01:15 METAR KUNV 300515Z AUTO 24004KT 10SM CLR 24/22 A2995 RMK AO2 T02400215 =
2015-07-30 00:55 METAR KUNV 300455Z AUTO 24004KT 10SM CLR 24/22 A2995 RMK AO2 T02400215 =
2015-07-30 00:35 METAR KUNV 300435Z AUTO 23003KT 10SM CLR 23/21 A2995 RMK AO2 T02270211 =
2015-07-30 00:15 METAR KUNV 300415Z AUTO 26003KT 10SM CLR 24/22 A2996 RMK AO2 T02430215 =
2015-07-29 23:55 METAR KUNV 300355Z AUTO 25003KT 10SM CLR 24/22 A2996 RMK AO2 T02410215 402920157
                 =
2015-07-29 23:35 METAR KUNV 300335Z AUTO 27003KT 10SM CLR 24/22 A2996 RMK AO2 T02410215 =
2015-07-29 23:15 METAR KUNV 300315Z AUTO 22003KT 10SM CLR 24/22 A2996 RMK AO2 T02420215 =
2015-07-29 22:35 METAR KUNV 300235Z AUTO 21003KT 10SM CLR 24/22 A2996 RMK AO2 T02420215 =
2015-07-29 22:15 METAR KUNV 300215Z AUTO 20003KT 10SM CLR 25/21 A2996 RMK AO2 T02460213 =
2015-07-29 20:53 METAR KUNV 300053Z 00000KT 7SM SKC 26/21 A2996 =
2015-07-29 19:53 METAR KUNV 292353Z 00000KT 7SM SKC 27/21 A2997 =
2015-07-29 18:53 METAR KUNV 292253Z 00000KT 7SM FEW060 28/22 A2996 =
2015-07-29 17:53 METAR KUNV 292153Z 00000KT 7SM FEW060 29/21 A2996 =
2015-07-29 16:53 METAR KUNV 292053Z 00000KT 7SM SCT060 29/21 A2997 =
2015-07-29 15:53 METAR KUNV 291953Z 20005KT 7SM SCT060 29/20 A2999 =
2015-07-29 14:53 METAR KUNV 291853Z 23008KT 7SM SCT043 29/20 A3001 =
2015-07-29 13:53 METAR KUNV 291753Z 20005KT 7SM SCT040 29/20 A3002 =
2015-07-29 12:53 METAR KUNV 291653Z 00000KT 7SM SKC 28/21 A3004 =
2015-07-29 11:53 METAR KUNV 291553Z 00000KT 10SM SKC 26/21 A3005 =
2015-07-29 10:53 METAR KUNV 291453Z 00000KT 10SM SKC 24/19 A3006 =

Support USWX by starting your Amazon purchase here.